createdAt,value
2022-08-26T00:02:07.663Z,24.56
2022-08-26T00:04:36.290Z,24.56
2022-08-26T00:07:05.390Z,24.51
2022-08-26T00:09:37.250Z,24.41
2022-08-26T00:12:12.282Z,24.41
2022-08-26T00:14:41.579Z,24.38
2022-08-26T00:17:09.725Z,24.32
2022-08-26T00:19:37.842Z,24.32
2022-08-26T00:22:06.488Z,24.29
2022-08-26T00:24:34.595Z,24.26
2022-08-26T00:27:02.670Z,24.25
2022-08-26T00:29:34.939Z,24.23
2022-08-26T00:32:06.562Z,24.19
2022-08-26T00:34:34.950Z,24.20
2022-08-26T00:37:02.969Z,24.17
2022-08-26T00:39:31.541Z,24.16
2022-08-26T00:42:00.563Z,24.14
2022-08-26T00:44:28.625Z,24.12
2022-08-26T00:47:04.121Z,24.11
2022-08-26T00:49:38.936Z,24.10
2022-08-26T00:52:09.889Z,24.11
2022-08-26T00:54:47.069Z,24.11
2022-08-26T00:57:18.630Z,24.10
2022-08-26T00:59:51.692Z,24.06
2022-08-26T01:02:21.814Z,24.00
2022-08-26T01:04:55.769Z,24.00
2022-08-26T01:07:26.192Z,24.02
2022-08-26T01:09:56.441Z,23.99
2022-08-26T01:12:26.028Z,23.89
2022-08-26T01:14:54.348Z,23.67
2022-08-26T01:17:24.712Z,23.55
2022-08-26T01:19:58.359Z,23.59
2022-08-26T01:22:31.279Z,23.67
2022-08-26T01:25:03.637Z,23.72
2022-08-26T01:27:33.634Z,23.74
2022-08-26T01:30:03.240Z,23.72
2022-08-26T01:32:34.340Z,23.72
2022-08-26T01:35:03.180Z,23.76
2022-08-26T01:37:36.546Z,23.79
2022-08-26T01:40:10.727Z,23.69
2022-08-26T01:42:38.786Z,23.66
2022-08-26T01:45:11.403Z,23.72
2022-08-26T01:47:39.994Z,23.73
2022-08-26T01:50:15.661Z,23.77
2022-08-26T01:52:54.250Z,23.71
2022-08-26T01:55:32.447Z,23.71
2022-08-26T01:58:05.855Z,23.71
2022-08-26T02:00:36.003Z,23.71
2022-08-26T02:03:18.652Z,23.67
2022-08-26T02:05:48.797Z,23.62
2022-08-26T02:08:24.657Z,23.66
2022-08-26T02:10:55.228Z,23.62
2022-08-26T02:13:24.522Z,23.59
2022-08-26T02:15:53.813Z,23.60
2022-08-26T02:18:22.487Z,23.59
2022-08-26T02:20:51.712Z,23.54
2022-08-26T02:23:19.977Z,23.48
2022-08-26T02:25:54.673Z,23.54
2022-08-26T02:28:26.816Z,23.52
2022-08-26T02:30:55.720Z,23.52
2022-08-26T02:33:23.881Z,23.58
2022-08-26T02:35:52.469Z,23.57
2022-08-26T02:38:20.403Z,23.58
2022-08-26T02:40:48.394Z,23.57
2022-08-26T02:43:17.112Z,23.56
2022-08-26T02:45:47.221Z,23.54
2022-08-26T02:48:19.075Z,23.48
2022-08-26T02:50:47.095Z,23.42
2022-08-26T02:53:16.192Z,23.38
2022-08-26T02:55:44.616Z,23.43
2022-08-26T02:58:17.148Z,23.46
2022-08-26T03:00:53.077Z,23.48
2022-08-26T03:03:23.596Z,23.39
2022-08-26T03:05:51.682Z,23.16
2022-08-26T03:08:19.829Z,23.02
2022-08-26T03:10:48.026Z,23.02
2022-08-26T03:13:18.182Z,23.06
2022-08-26T03:15:47.870Z,22.91
2022-08-26T03:18:16.207Z,22.70
2022-08-26T03:20:44.172Z,22.63
2022-08-26T03:23:12.593Z,22.69
2022-08-26T03:25:40.797Z,22.75
2022-08-26T03:28:09.638Z,22.65
2022-08-26T03:30:45.309Z,22.63
2022-08-26T03:33:15.661Z,22.64
2022-08-26T03:35:47.281Z,22.67
2022-08-26T03:38:16.328Z,22.69
2022-08-26T03:40:44.748Z,22.75
2022-08-26T03:43:13.395Z,22.75
2022-08-26T03:45:41.998Z,22.80
2022-08-26T03:48:11.408Z,22.87
2022-08-26T03:50:41.459Z,22.96
2022-08-26T03:53:12.736Z,22.95
2022-08-26T03:55:42.301Z,22.92
2022-08-26T03:58:11.667Z,22.90
2022-08-26T04:00:39.885Z,22.95
2022-08-26T04:03:10.048Z,22.95
2022-08-26T04:05:38.981Z,22.85
2022-08-26T04:08:08.399Z,22.75
2022-08-26T04:10:39.011Z,22.55
2022-08-26T04:13:07.422Z,22.41
2022-08-26T04:15:35.688Z,22.45
2022-08-26T04:18:04.254Z,22.52
2022-08-26T04:20:32.368Z,22.54
2022-08-26T04:23:00.588Z,22.58
2022-08-26T04:25:30.086Z,22.62
2022-08-26T04:27:58.067Z,22.60
2022-08-26T04:30:26.254Z,22.64
2022-08-26T04:32:54.356Z,22.65
2022-08-26T04:35:25.596Z,22.69
2022-08-26T04:37:55.497Z,22.70
2022-08-26T04:40:24.012Z,22.56
2022-08-26T04:42:55.280Z,22.20
2022-08-26T04:45:23.391Z,22.12
2022-08-26T04:47:56.293Z,22.30
2022-08-26T04:50:26.613Z,22.45
2022-08-26T04:52:55.425Z,22.51
2022-08-26T04:55:38.443Z,22.63
2022-08-26T04:58:10.389Z,22.68
2022-08-26T05:00:39.950Z,22.71
2022-08-26T05:03:10.509Z,22.58
2022-08-26T05:05:43.316Z,22.60
2022-08-26T05:08:13.206Z,22.70
2022-08-26T05:10:42.205Z,22.76
2022-08-26T05:13:15.563Z,22.82
2022-08-26T05:15:45.087Z,22.83
2022-08-26T05:18:14.252Z,22.86
2022-08-26T05:20:44.618Z,22.91
2022-08-26T05:23:13.719Z,22.88
2022-08-26T05:25:44.802Z,22.94
2022-08-26T05:28:16.463Z,23.03
2022-08-26T05:30:45.251Z,23.14
2022-08-26T05:33:14.261Z,23.20
2022-08-26T05:35:43.371Z,23.29
2022-08-26T05:38:14.518Z,23.33
2022-08-26T05:40:45.597Z,23.37
2022-08-26T05:43:15.117Z,23.40
2022-08-26T05:45:45.875Z,23.43
2022-08-26T05:48:16.092Z,23.45
2022-08-26T05:50:46.563Z,23.48
2022-08-26T05:53:17.507Z,23.54
2022-08-26T05:55:47.450Z,23.55
2022-08-26T05:58:20.125Z,23.42
2022-08-26T06:00:57.123Z,22.77
2022-08-26T06:03:25.363Z,22.74
2022-08-26T06:05:53.656Z,22.77
2022-08-26T06:08:22.409Z,22.68
2022-08-26T06:10:53.058Z,22.59
2022-08-26T06:13:25.622Z,22.63
2022-08-26T06:15:55.427Z,22.60
2022-08-26T06:18:32.543Z,22.58
2022-08-26T06:21:00.895Z,22.47
2022-08-26T06:23:48.116Z,22.43
2022-08-26T06:26:17.742Z,22.37
2022-08-26T06:28:47.080Z,22.35
2022-08-26T06:31:16.063Z,22.34
2022-08-26T06:33:44.669Z,22.28
2022-08-26T06:36:17.327Z,22.30
2022-08-26T06:38:47.801Z,22.30
2022-08-26T06:41:15.925Z,22.20
2022-08-26T06:43:43.944Z,22.33
2022-08-26T06:46:16.554Z,22.30
2022-08-26T06:48:45.287Z,22.31
2022-08-26T06:51:15.434Z,22.39
2022-08-26T06:53:46.986Z,22.36
2022-08-26T06:56:18.936Z,22.34
2022-08-26T06:58:46.996Z,21.99
2022-08-26T07:01:22.429Z,21.76
2022-08-26T07:03:52.132Z,21.52
2022-08-26T07:06:22.670Z,21.63
2022-08-26T07:08:52.361Z,21.65
2022-08-26T07:11:21.384Z,21.54
2022-08-26T07:13:51.310Z,21.57
2022-08-26T07:16:22.020Z,21.77
2022-08-26T07:18:53.093Z,21.89
2022-08-26T07:21:22.301Z,21.88
2022-08-26T07:23:51.857Z,21.94
2022-08-26T07:26:21.803Z,21.98
2022-08-26T07:28:55.031Z,21.92
2022-08-26T07:31:26.422Z,21.94
2022-08-26T07:33:54.987Z,22.06
2022-08-26T07:36:24.213Z,22.18
2022-08-26T07:38:53.424Z,22.24
2022-08-26T07:41:27.119Z,22.17
2022-08-26T07:43:55.663Z,22.24
2022-08-26T07:46:29.891Z,22.12
2022-08-26T07:48:59.636Z,22.03
2022-08-26T07:51:28.380Z,21.96
2022-08-26T07:53:56.741Z,21.97
2022-08-26T07:56:25.280Z,21.96
2022-08-26T07:58:54.466Z,21.73
2022-08-26T08:01:24.759Z,21.79
2022-08-26T08:03:55.583Z,21.85
2022-08-26T08:06:28.246Z,21.90
2022-08-26T08:08:57.123Z,21.94
2022-08-26T08:11:27.266Z,21.92
2022-08-26T08:13:56.450Z,21.78
2022-08-26T08:16:32.299Z,21.77
2022-08-26T08:19:03.880Z,21.82
2022-08-26T08:21:32.447Z,21.88
2022-08-26T08:24:00.914Z,21.99
2022-08-26T08:26:28.857Z,22.10
2022-08-26T08:28:59.087Z,22.19
2022-08-26T08:31:57.110Z,22.20
2022-08-26T08:34:19.344Z,22.17
2022-08-26T08:36:50.375Z,22.24
2022-08-26T08:39:22.411Z,22.15
2022-08-26T08:42:04.273Z,22.21
2022-08-26T08:44:32.627Z,22.29
2022-08-26T08:47:06.359Z,22.36
2022-08-26T08:49:36.133Z,22.40
2022-08-26T08:52:11.882Z,22.36
2022-08-26T08:54:39.915Z,22.36
2022-08-26T08:57:13.660Z,22.36
2022-08-26T08:59:50.975Z,22.37
2022-08-26T09:02:28.738Z,22.39
2022-08-26T09:05:06.551Z,22.45
2022-08-26T09:07:40.120Z,22.54
2022-08-26T09:10:25.367Z,22.57
2022-08-26T09:12:54.090Z,22.57
2022-08-26T09:15:28.679Z,22.69
2022-08-26T09:18:10.767Z,22.80
2022-08-26T09:20:48.020Z,22.86
2022-08-26T09:23:18.206Z,22.88
2022-08-26T09:25:48.165Z,22.92
2022-08-26T09:28:19.415Z,22.97
2022-08-26T09:31:03.512Z,22.88
2022-08-26T09:33:34.129Z,22.77
2022-08-26T09:36:26.221Z,22.82
2022-08-26T09:38:55.133Z,22.87
2022-08-26T09:41:27.027Z,22.89
2022-08-26T09:44:14.754Z,22.89
2022-08-26T09:46:47.814Z,23.01
2022-08-26T09:49:26.713Z,23.05
2022-08-26T09:52:09.710Z,22.99
2022-08-26T09:54:39.073Z,22.75
2022-08-26T09:57:22.660Z,22.84
2022-08-26T09:59:51.038Z,22.94
2022-08-26T10:02:36.819Z,23.00
2022-08-26T10:05:09.626Z,22.83
2022-08-26T10:07:46.975Z,22.63
2022-08-26T10:10:24.015Z,22.61
2022-08-26T10:13:04.354Z,22.74
2022-08-26T10:15:42.421Z,22.85
2022-08-26T10:18:21.082Z,22.94
2022-08-26T10:20:57.141Z,23.07
2022-08-26T10:23:32.179Z,23.20
2022-08-26T10:26:06.902Z,23.29
2022-08-26T10:28:41.298Z,23.40
2022-08-26T10:31:30.303Z,23.42
2022-08-26T10:34:06.628Z,23.26
2022-08-26T10:37:14.680Z,23.35
2022-08-26T10:39:49.491Z,23.47
2022-08-26T10:42:31.209Z,23.57
2022-08-26T10:45:07.618Z,23.66
2022-08-26T10:47:47.068Z,23.71
2022-08-26T10:50:18.090Z,23.77
2022-08-26T10:53:01.773Z,23.76
2022-08-26T10:55:37.223Z,23.76
2022-08-26T10:58:26.210Z,23.71
2022-08-26T11:01:22.588Z,23.72
2022-08-26T11:04:00.652Z,23.89
2022-08-26T11:06:31.390Z,24.11
2022-08-26T11:09:02.181Z,24.36
2022-08-26T11:11:46.911Z,24.44
2022-08-26T11:14:46.016Z,24.51
2022-08-26T11:17:56.555Z,24.33
2022-08-26T11:20:37.457Z,24.11
2022-08-26T11:23:40.385Z,24.17
2022-08-26T11:26:18.910Z,24.14
2022-08-26T11:29:12.139Z,24.26
2022-08-26T11:31:57.001Z,24.22
2022-08-26T11:34:54.923Z,24.38
2022-08-26T11:37:33.533Z,24.64
2022-08-26T11:40:04.679Z,24.60
2022-08-26T11:42:39.489Z,24.58
2022-08-26T11:45:19.336Z,24.58
2022-08-26T11:47:49.342Z,24.73
2022-08-26T11:50:20.722Z,24.90
2022-08-26T11:53:01.706Z,24.91
2022-08-26T11:55:30.931Z,25.05
2022-08-26T11:58:02.308Z,25.20
2022-08-26T12:00:50.142Z,25.39
2022-08-26T12:03:23.019Z,25.47
2022-08-26T12:05:55.134Z,25.29
2022-08-26T12:08:27.910Z,25.19
2022-08-26T12:11:03.566Z,25.17
2022-08-26T12:13:32.054Z,25.09
2022-08-26T12:16:02.647Z,25.15
2022-08-26T12:18:33.323Z,25.15
2022-08-26T12:21:10.953Z,25.12
2022-08-26T12:23:44.737Z,25.15
2022-08-26T12:26:22.518Z,25.28
2022-08-26T12:28:55.549Z,25.26
2022-08-26T12:31:34.549Z,25.28
2022-08-26T12:34:05.499Z,25.35
2022-08-26T12:36:38.229Z,25.43
2022-08-26T12:39:11.193Z,25.46
2022-08-26T12:41:48.311Z,25.47
2022-08-26T12:44:53.287Z,25.30
2022-08-26T12:47:30.964Z,25.29
2022-08-26T12:50:18.204Z,25.38
2022-08-26T12:52:57.456Z,25.46
2022-08-26T12:55:35.599Z,25.50
2022-08-26T12:58:29.679Z,25.53
2022-08-26T13:00:59.469Z,25.68
2022-08-26T13:03:43.422Z,25.89
2022-08-26T13:06:18.311Z,25.97
2022-08-26T13:08:47.094Z,26.06
2022-08-26T13:11:20.976Z,26.03
2022-08-26T13:13:51.934Z,26.21
2022-08-26T13:16:22.717Z,26.29
2022-08-26T13:18:55.223Z,26.47
2022-08-26T13:21:24.977Z,26.30
2022-08-26T13:23:53.459Z,26.27
2022-08-26T13:26:22.712Z,26.46
2022-08-26T13:28:53.309Z,26.50
2022-08-26T13:31:32.223Z,26.65
2022-08-26T13:34:03.690Z,26.85
2022-08-26T13:36:32.229Z,27.08
2022-08-26T13:39:00.776Z,27.28
2022-08-26T13:41:29.005Z,27.44
2022-08-26T13:43:58.918Z,27.46
2022-08-26T13:46:27.920Z,27.55
2022-08-26T13:48:56.299Z,27.48
2022-08-26T13:51:27.631Z,27.50
2022-08-26T13:53:55.911Z,27.80
2022-08-26T13:56:24.152Z,28.01
2022-08-26T13:58:52.214Z,28.09
2022-08-26T14:01:20.398Z,28.01
2022-08-26T14:03:48.702Z,27.76
2022-08-26T14:06:17.354Z,27.64
2022-08-26T14:08:47.193Z,27.32
2022-08-26T14:11:16.414Z,27.28
2022-08-26T14:13:44.509Z,27.28
2022-08-26T14:16:27.173Z,27.45
2022-08-26T14:18:55.575Z,27.54
2022-08-26T14:21:25.421Z,27.29
2022-08-26T14:24:00.314Z,27.01
2022-08-26T14:26:29.944Z,26.89
2022-08-26T14:28:58.954Z,26.77
2022-08-26T14:31:29.359Z,27.04
2022-08-26T14:33:59.549Z,27.20
2022-08-26T14:36:32.383Z,26.97
2022-08-26T14:39:05.470Z,26.91
2022-08-26T14:41:37.150Z,26.83
2022-08-26T14:44:09.012Z,26.71
2022-08-26T14:46:42.897Z,26.61
2022-08-26T14:49:11.062Z,26.52
2022-08-26T14:51:39.175Z,26.39
2022-08-26T14:54:16.127Z,26.25
2022-08-26T14:56:48.572Z,26.23
2022-08-26T14:59:19.259Z,26.23
2022-08-26T15:01:48.090Z,26.28
2022-08-26T15:04:16.306Z,26.16
2022-08-26T15:06:44.988Z,26.10
2022-08-26T15:09:15.372Z,26.08
2022-08-26T15:11:43.390Z,26.02
2022-08-26T15:14:19.206Z,26.09
2022-08-26T15:16:49.600Z,26.10
2022-08-26T15:19:18.412Z,26.09
2022-08-26T15:21:47.307Z,26.14
2022-08-26T15:24:19.270Z,26.10
2022-08-26T15:26:48.084Z,26.14
2022-08-26T15:29:16.598Z,26.21
2022-08-26T15:31:44.765Z,26.25
2022-08-26T15:34:16.667Z,26.30
2022-08-26T15:36:46.398Z,26.28
2022-08-26T15:39:17.895Z,26.34
2022-08-26T15:41:46.710Z,26.56
2022-08-26T15:44:17.850Z,26.64
2022-08-26T15:46:46.476Z,26.53
2022-08-26T15:49:18.436Z,26.44
2022-08-26T15:51:48.235Z,26.37
2022-08-26T15:54:19.664Z,26.36
2022-08-26T15:56:50.628Z,26.35
2022-08-26T15:59:19.934Z,26.32
2022-08-26T16:01:48.298Z,26.30
2022-08-26T16:04:17.784Z,26.31
2022-08-26T16:06:50.165Z,26.32
2022-08-26T16:09:19.975Z,26.32
2022-08-26T16:11:48.047Z,26.38
2022-08-26T16:14:16.610Z,26.40
2022-08-26T16:16:44.640Z,26.39
2022-08-26T16:19:12.778Z,26.41
2022-08-26T16:21:42.188Z,26.38
2022-08-26T16:24:10.818Z,26.38
2022-08-26T16:26:42.474Z,26.36
2022-08-26T16:29:12.376Z,26.26
2022-08-26T16:31:40.856Z,26.24
2022-08-26T16:34:09.895Z,26.55
2022-08-26T16:36:39.518Z,26.70
2022-08-26T16:39:09.258Z,26.84
2022-08-26T16:41:37.543Z,26.77
2022-08-26T16:44:08.564Z,26.71
2022-08-26T16:46:37.341Z,26.60
2022-08-26T16:49:05.425Z,26.53
2022-08-26T16:51:37.960Z,26.48
2022-08-26T16:54:08.620Z,26.34
2022-08-26T16:56:37.538Z,26.16
2022-08-26T16:59:09.569Z,25.93
2022-08-26T17:01:37.751Z,25.79
2022-08-26T17:04:06.017Z,25.66
2022-08-26T17:06:34.111Z,25.62
2022-08-26T17:09:02.161Z,25.57
2022-08-26T17:11:30.405Z,25.48
2022-08-26T17:13:58.457Z,25.29
2022-08-26T17:16:28.541Z,25.32
2022-08-26T17:18:57.462Z,25.28
2022-08-26T17:21:26.532Z,25.25
2022-08-26T17:23:55.496Z,25.21
2022-08-26T17:26:24.393Z,25.28
2022-08-26T17:28:52.593Z,25.36
2022-08-26T17:31:21.179Z,25.46
2022-08-26T17:33:53.799Z,25.42
2022-08-26T17:36:22.958Z,25.38
2022-08-26T17:38:55.745Z,25.35
2022-08-26T17:41:23.737Z,25.38
2022-08-26T17:43:51.704Z,25.36
2022-08-26T17:46:19.770Z,25.26
2022-08-26T17:48:48.319Z,25.25
2022-08-26T17:51:19.537Z,25.22
2022-08-26T17:53:48.030Z,25.23
2022-08-26T17:56:19.126Z,25.27
2022-08-26T17:58:51.403Z,24.97
2022-08-26T18:01:20.399Z,24.59
2022-08-26T18:03:49.010Z,24.60
2022-08-26T18:06:18.447Z,24.59
2022-08-26T18:08:46.509Z,24.46
2022-08-26T18:11:16.904Z,24.37
2022-08-26T18:13:47.446Z,24.36
2022-08-26T18:16:17.921Z,24.20
2022-08-26T18:18:46.801Z,24.23
2022-08-26T18:21:18.567Z,24.23
2022-08-26T18:23:48.512Z,24.13
2022-08-26T18:26:18.631Z,23.89
2022-08-26T18:28:47.004Z,23.77
2022-08-26T18:31:15.868Z,23.76
2022-08-26T18:33:44.204Z,23.80
2022-08-26T18:36:17.339Z,23.85
2022-08-26T18:38:46.979Z,23.84
2022-08-26T18:41:15.148Z,23.82
2022-08-26T18:43:43.451Z,23.77
2022-08-26T18:46:11.901Z,23.75
2022-08-26T18:48:41.615Z,23.72
2022-08-26T18:51:12.486Z,23.72
2022-08-26T18:53:42.041Z,23.73
2022-08-26T18:56:13.217Z,23.68
2022-08-26T18:58:44.351Z,23.64
2022-08-26T19:01:12.432Z,23.64
2022-08-26T19:03:40.498Z,23.58
2022-08-26T19:06:09.562Z,23.55
2022-08-26T19:08:37.531Z,23.51
2022-08-26T19:11:14.221Z,23.48
2022-08-26T19:13:42.509Z,23.37
2022-08-26T19:16:16.635Z,23.37
2022-08-26T19:18:45.058Z,23.26
2022-08-26T19:21:14.089Z,23.18
2022-08-26T19:23:42.067Z,23.18
2022-08-26T19:26:11.447Z,23.20
2022-08-26T19:28:41.296Z,23.19
2022-08-26T19:31:11.463Z,22.98
2022-08-26T19:33:40.688Z,22.97
2022-08-26T19:36:12.725Z,22.99
2022-08-26T19:38:42.928Z,22.86
2022-08-26T19:41:13.151Z,22.47
2022-08-26T19:43:43.318Z,22.25
2022-08-26T19:46:17.397Z,22.30
2022-08-26T19:48:45.827Z,22.39
2022-08-26T19:51:15.696Z,22.56
2022-08-26T19:53:44.746Z,22.64
2022-08-26T19:56:12.904Z,22.69
2022-08-26T19:58:43.241Z,22.70
2022-08-26T20:01:12.398Z,22.67
2022-08-26T20:03:40.977Z,22.66
2022-08-26T20:06:10.532Z,22.72
2022-08-26T20:08:40.642Z,22.66
2022-08-26T20:11:11.951Z,22.65
2022-08-26T20:13:40.368Z,22.65
2022-08-26T20:16:12.085Z,22.66
2022-08-26T20:18:58.420Z,22.62
2022-08-26T20:21:29.533Z,22.59
2022-08-26T20:24:00.963Z,22.56
2022-08-26T20:26:30.753Z,22.49
2022-08-26T20:28:59.283Z,22.43
2022-08-26T20:31:30.102Z,22.41
2022-08-26T20:33:58.657Z,22.33
2022-08-26T20:36:28.443Z,22.31
2022-08-26T20:38:57.765Z,22.27
2022-08-26T20:41:26.538Z,22.17
2022-08-26T20:43:55.215Z,22.04
2022-08-26T20:46:25.086Z,22.09
2022-08-26T20:48:55.562Z,22.22
2022-08-26T20:51:26.283Z,22.28
2022-08-26T20:53:54.543Z,22.31
2022-08-26T20:56:46.498Z,22.32
2022-08-26T20:59:15.377Z,22.31
2022-08-26T21:01:44.005Z,22.24
2022-08-26T21:04:17.015Z,22.25
2022-08-26T21:06:52.090Z,22.28
2022-08-26T21:09:22.559Z,22.26
2022-08-26T21:11:51.192Z,22.23
2022-08-26T21:14:20.606Z,22.21
2022-08-26T21:16:48.758Z,22.17
2022-08-26T21:19:20.093Z,22.21
2022-08-26T21:21:49.153Z,22.17
2022-08-26T21:24:18.081Z,22.09
2022-08-26T21:26:46.836Z,22.10
2022-08-26T21:29:14.925Z,22.04
2022-08-26T21:31:46.444Z,22.07
2022-08-26T21:34:15.409Z,22.10
2022-08-26T21:36:44.881Z,22.11
2022-08-26T21:39:13.880Z,22.12
2022-08-26T21:41:43.223Z,22.12
2022-08-26T21:44:12.147Z,22.05
2022-08-26T21:46:40.246Z,21.95
2022-08-26T21:49:10.882Z,21.81
2022-08-26T21:51:41.620Z,21.78
2022-08-26T21:54:12.274Z,21.78
2022-08-26T21:56:44.298Z,21.79
2022-08-26T21:59:12.849Z,21.80
2022-08-26T22:01:40.837Z,21.80
2022-08-26T22:04:10.591Z,21.82
2022-08-26T22:06:43.977Z,21.81
2022-08-26T22:09:14.803Z,21.82
2022-08-26T22:11:42.969Z,21.79
2022-08-26T22:14:11.368Z,21.69
2022-08-26T22:16:39.611Z,21.71
2022-08-26T22:19:07.807Z,21.65
2022-08-26T22:21:40.573Z,21.50
2022-08-26T22:24:12.131Z,21.39
2022-08-26T22:26:41.541Z,21.38
2022-08-26T22:29:09.604Z,21.40
2022-08-26T22:31:38.736Z,21.42
2022-08-26T22:34:09.263Z,21.50
2022-08-26T22:36:42.926Z,21.50
2022-08-26T22:39:13.439Z,21.48
2022-08-26T22:41:43.590Z,21.46
2022-08-26T22:44:13.089Z,21.47
2022-08-26T22:46:42.283Z,21.35
2022-08-26T22:49:12.547Z,21.34
2022-08-26T22:51:40.624Z,21.36
2022-08-26T22:54:08.735Z,21.38
2022-08-26T22:56:37.257Z,21.40
2022-08-26T22:59:07.994Z,21.43
2022-08-26T23:01:37.717Z,21.47
2022-08-26T23:04:06.737Z,21.45
2022-08-26T23:06:37.559Z,21.46
2022-08-26T23:09:06.388Z,21.37
2022-08-26T23:11:35.035Z,21.33
2022-08-26T23:14:06.435Z,21.34
2022-08-26T23:16:39.326Z,21.37
2022-08-26T23:19:08.142Z,21.30
2022-08-26T23:21:36.266Z,21.29
2022-08-26T23:24:05.160Z,21.29
2022-08-26T23:26:33.779Z,21.27
2022-08-26T23:29:02.109Z,21.23
2022-08-26T23:31:30.253Z,21.18
2022-08-26T23:34:17.570Z,21.20
2022-08-26T23:36:45.733Z,21.17
2022-08-26T23:39:15.245Z,21.15
2022-08-26T23:41:43.494Z,21.17
2022-08-26T23:44:12.354Z,21.19
2022-08-26T23:46:40.400Z,21.19
2022-08-26T23:49:10.076Z,21.17
2022-08-26T23:51:56.501Z,21.12
2022-08-26T23:54:24.576Z,21.10
2022-08-26T23:56:52.575Z,21.10
2022-08-26T23:59:21.103Z,21.08
